createdAt,value
2023-03-10T00:00:12.667Z,99242.50
2023-03-10T00:00:45.225Z,99241.59
2023-03-10T00:01:31.330Z,99233.31
2023-03-10T00:02:03.037Z,99233.81
2023-03-10T00:02:35.518Z,99240.66
2023-03-10T00:03:07.788Z,99231.56
2023-03-10T00:03:40.287Z,99242.09
2023-03-10T00:04:12.603Z,99243.06
2023-03-10T00:04:44.437Z,99240.44
2023-03-10T00:05:18.577Z,99240.25
2023-03-10T00:05:50.405Z,99235.81
2023-03-10T00:06:26.122Z,99241.09
2023-03-10T00:06:57.774Z,99239.50
2023-03-10T00:07:29.774Z,99241.41
2023-03-10T00:08:01.478Z,99236.16
2023-03-10T00:08:33.139Z,99234.47
2023-03-10T00:09:04.861Z,99238.91
2023-03-10T00:09:36.655Z,99241.31
2023-03-10T00:10:10.486Z,99238.09
2023-03-10T00:10:42.263Z,99240.75
2023-03-10T00:11:14.834Z,99240.75
2023-03-10T00:11:46.471Z,99236.66
2023-03-10T00:12:18.167Z,99241.19
2023-03-10T00:12:49.869Z,99237.16
2023-03-10T00:13:21.576Z,99238.06
2023-03-10T00:13:53.484Z,99238.06
2023-03-10T00:14:25.181Z,99242.66
2023-03-10T00:14:56.832Z,99240.34
2023-03-10T00:15:28.578Z,99242.97
2023-03-10T00:16:00.626Z,99235.63
2023-03-10T00:16:32.359Z,99240.31
2023-03-10T00:17:04.406Z,99243.13
2023-03-10T00:17:36.642Z,99243.97
2023-03-10T00:18:08.313Z,99240.03
2023-03-10T00:18:41.520Z,99241.25
2023-03-10T00:19:13.186Z,99246.50
2023-03-10T00:19:44.815Z,99236.91
2023-03-10T00:20:16.796Z,99238.84
2023-03-10T00:20:54.655Z,99240.66
2023-03-10T00:21:30.125Z,99241.66
2023-03-10T00:22:03.795Z,99239.63
2023-03-10T00:22:35.707Z,99235.31
2023-03-10T00:23:07.350Z,99237.81
2023-03-10T00:23:39.042Z,99236.97
2023-03-10T00:24:10.716Z,99238.81
2023-03-10T00:24:42.367Z,99234.56
2023-03-10T00:25:15.674Z,99233.56
2023-03-10T00:25:58.360Z,99238.72
2023-03-10T00:26:30.214Z,99230.03
2023-03-10T00:27:01.872Z,99235.22
2023-03-10T00:27:34.252Z,99227.63
2023-03-10T00:28:05.927Z,99227.63
2023-03-10T00:28:37.569Z,99233.47
2023-03-10T00:29:11.963Z,99223.03
2023-03-10T00:29:43.694Z,99229.03
2023-03-10T00:30:15.451Z,99221.28
2023-03-10T00:30:59.349Z,99222.91
2023-03-10T00:31:32.458Z,99230.47
2023-03-10T00:32:04.342Z,99216.81
2023-03-10T00:32:36.500Z,99217.56
2023-03-10T00:33:08.245Z,99221.81
2023-03-10T00:33:39.969Z,99221.81
2023-03-10T00:34:12.513Z,99222.91
2023-03-10T00:34:44.254Z,99220.13
2023-03-10T00:35:16.001Z,99218.47
2023-03-10T00:35:47.684Z,99221.91
2023-03-10T00:36:22.451Z,99219.13
2023-03-10T00:36:54.192Z,99219.97
2023-03-10T00:37:25.922Z,99217.47
2023-03-10T00:37:57.604Z,99216.63
2023-03-10T00:38:29.299Z,99215.97
2023-03-10T00:39:01.605Z,99219.13
2023-03-10T00:39:33.241Z,99214.13
2023-03-10T00:40:11.091Z,99219.97
2023-03-10T00:40:42.757Z,99217.38
2023-03-10T00:41:17.528Z,99219.13
2023-03-10T00:41:49.814Z,99212.22
2023-03-10T00:42:21.548Z,99217.25
2023-03-10T00:42:53.204Z,99226.66
2023-03-10T00:43:24.899Z,99217.38
2023-03-10T00:43:57.992Z,99220.22
2023-03-10T00:44:29.655Z,99222.72
2023-03-10T00:45:01.369Z,99216.72
2023-03-10T00:45:36.008Z,99219.97
2023-03-10T00:46:08.077Z,99221.22
2023-03-10T00:46:39.933Z,99217.78
2023-03-10T00:47:11.728Z,99207.44
2023-03-10T00:47:43.382Z,99217.66
2023-03-10T00:48:15.018Z,99211.78
2023-03-10T00:48:46.740Z,99206.94
2023-03-10T00:49:18.415Z,99208.00
2023-03-10T00:49:50.088Z,99203.75
2023-03-10T00:50:21.750Z,99206.44
2023-03-10T00:50:53.783Z,99211.81
2023-03-10T00:51:25.609Z,99203.25
2023-03-10T00:51:57.260Z,99203.31
2023-03-10T00:52:33.061Z,99212.00
2023-03-10T00:53:04.754Z,99209.72
2023-03-10T00:53:38.934Z,99207.13
2023-03-10T00:54:11.131Z,99215.03
2023-03-10T00:54:42.844Z,99209.72
2023-03-10T00:55:14.539Z,99215.19
2023-03-10T00:56:04.223Z,99209.19
2023-03-10T00:56:36.008Z,99210.03
2023-03-10T00:57:08.738Z,99214.28
2023-03-10T00:57:40.467Z,99211.84
2023-03-10T00:58:12.107Z,99203.09
2023-03-10T00:58:45.959Z,99210.03
2023-03-10T00:59:17.587Z,99213.34
2023-03-10T00:59:52.426Z,99205.56
2023-03-10T01:00:24.319Z,99204.63
2023-03-10T01:00:56.366Z,99204.09
2023-03-10T01:01:33.959Z,99192.09
2023-03-10T01:02:05.880Z,99207.53
2023-03-10T01:02:37.617Z,99203.34
2023-03-10T01:03:09.354Z,99201.75
2023-03-10T01:03:41.140Z,99200.28
2023-03-10T01:04:15.878Z,99199.53
2023-03-10T01:04:48.404Z,99196.13
2023-03-10T01:05:20.370Z,99199.63
2023-03-10T01:05:52.441Z,99192.94
2023-03-10T01:06:25.276Z,99193.78
2023-03-10T01:06:57.061Z,99194.69
2023-03-10T01:07:28.706Z,99189.75
2023-03-10T01:08:00.360Z,99193.94
2023-03-10T01:08:32.050Z,99195.75
2023-03-10T01:09:04.984Z,99197.50
2023-03-10T01:09:36.912Z,99197.66
2023-03-10T01:10:09.240Z,99196.22
2023-03-10T01:10:41.020Z,99189.22
2023-03-10T01:11:17.461Z,99188.69
2023-03-10T01:11:49.339Z,99197.19
2023-03-10T01:12:21.933Z,99187.69
2023-03-10T01:12:53.590Z,99183.31
2023-03-10T01:13:25.224Z,99183.44
2023-03-10T01:14:03.328Z,99184.16
2023-03-10T01:14:35.017Z,99188.47
2023-03-10T01:15:07.460Z,99186.03
2023-03-10T01:15:40.348Z,99179.19
2023-03-10T01:16:12.325Z,99181.88
2023-03-10T01:16:44.246Z,99183.38
2023-03-10T01:17:15.909Z,99183.44
2023-03-10T01:17:50.721Z,99183.38
2023-03-10T01:18:22.827Z,99177.38
2023-03-10T01:18:54.661Z,99176.69
2023-03-10T01:19:26.318Z,99176.69
2023-03-10T01:19:57.978Z,99178.66
2023-03-10T01:20:34.039Z,99167.66
2023-03-10T01:21:06.928Z,99175.50
2023-03-10T01:21:39.844Z,99168.59
2023-03-10T01:22:11.481Z,99172.97
2023-03-10T01:22:43.805Z,99173.66
2023-03-10T01:23:21.242Z,99169.41
2023-03-10T01:23:53.647Z,99172.06
2023-03-10T01:24:25.363Z,99162.81
2023-03-10T01:24:57.037Z,99166.97
2023-03-10T01:25:28.993Z,99172.97
2023-03-10T01:26:00.700Z,99176.34
2023-03-10T01:26:32.498Z,99180.56
2023-03-10T01:27:04.136Z,99163.63
2023-03-10T01:27:35.739Z,99161.13
2023-03-10T01:28:07.389Z,99160.22
2023-03-10T01:28:39.119Z,99158.41
2023-03-10T01:29:10.795Z,99163.03
2023-03-10T01:29:42.578Z,99160.38
2023-03-10T01:30:14.796Z,99161.22
2023-03-10T01:30:46.789Z,99159.47
2023-03-10T01:31:19.000Z,99162.97
2023-03-10T01:31:50.750Z,99159.78
2023-03-10T01:32:22.484Z,99157.31
2023-03-10T01:32:54.202Z,99161.06
2023-03-10T01:33:25.859Z,99156.72
2023-03-10T01:33:57.537Z,99154.97
2023-03-10T01:34:29.192Z,99158.69
2023-03-10T01:35:00.823Z,99156.25
2023-03-10T01:35:32.488Z,99160.22
2023-03-10T01:36:10.843Z,99152.16
2023-03-10T01:36:42.573Z,99156.25
2023-03-10T01:37:14.235Z,99151.09
2023-03-10T01:37:45.910Z,99155.47
2023-03-10T01:38:17.562Z,99160.81
2023-03-10T01:38:50.209Z,99159.88
2023-03-10T01:39:21.841Z,99160.81
2023-03-10T01:39:53.523Z,99150.47
2023-03-10T01:40:26.799Z,99158.97
2023-03-10T01:40:58.476Z,99167.56
2023-03-10T01:41:30.261Z,99162.19
2023-03-10T01:42:01.953Z,99155.19
2023-03-10T01:42:33.622Z,99149.28
2023-03-10T01:43:20.208Z,99158.75
2023-03-10T01:43:56.479Z,99152.03
2023-03-10T01:44:28.137Z,99158.00
2023-03-10T01:45:24.126Z,99157.94
2023-03-10T01:46:01.466Z,99153.69
2023-03-10T01:46:38.943Z,99150.31
2023-03-10T01:47:11.606Z,99157.22
2023-03-10T01:47:43.997Z,99148.81
2023-03-10T01:48:17.082Z,99151.53
2023-03-10T01:48:48.831Z,99152.44
2023-03-10T01:49:28.964Z,99147.44
2023-03-10T01:50:01.363Z,99150.19
2023-03-10T01:50:33.066Z,99141.56
2023-03-10T01:51:04.965Z,99144.94
2023-03-10T01:51:39.603Z,99148.44
2023-03-10T01:52:22.022Z,99146.72
2023-03-10T01:52:58.443Z,99140.63
2023-03-10T01:53:30.446Z,99137.94
2023-03-10T01:54:07.237Z,99132.78
2023-03-10T01:54:46.515Z,99138.25
2023-03-10T01:55:21.785Z,99135.53
2023-03-10T01:56:00.641Z,99134.81
2023-03-10T01:56:32.354Z,99135.66
2023-03-10T01:57:06.234Z,99135.81
2023-03-10T01:57:44.195Z,99134.91
2023-03-10T01:58:20.849Z,99128.84
2023-03-10T01:58:54.007Z,99130.75
2023-03-10T01:59:27.581Z,99133.38
2023-03-10T02:00:00.280Z,99132.63
2023-03-10T02:00:32.346Z,99138.53
2023-03-10T02:01:04.548Z,99130.03
2023-03-10T02:01:36.938Z,99130.13
2023-03-10T02:02:10.072Z,99131.94
2023-03-10T02:03:08.286Z,99130.28
2023-03-10T02:04:03.479Z,99127.53
2023-03-10T02:04:48.699Z,99127.81
2023-03-10T02:05:21.654Z,99127.69
2023-03-10T02:06:04.953Z,99128.53
2023-03-10T02:06:41.767Z,99123.50
2023-03-10T02:07:14.556Z,99127.00
2023-03-10T02:07:46.356Z,99123.78
2023-03-10T02:08:19.832Z,99132.34
2023-03-10T02:08:56.864Z,99117.78
2023-03-10T02:09:29.147Z,99117.94
2023-03-10T02:10:02.270Z,99118.88
2023-03-10T02:10:33.920Z,99126.44
2023-03-10T02:11:06.068Z,99122.47
2023-03-10T02:11:38.646Z,99113.06
2023-03-10T02:12:12.945Z,99109.59
2023-03-10T02:12:44.578Z,99114.75
2023-03-10T02:13:16.360Z,99120.06
2023-03-10T02:13:48.504Z,99123.53
2023-03-10T02:14:20.257Z,99110.66
2023-03-10T02:14:53.597Z,99116.66
2023-03-10T02:15:25.440Z,99115.81
2023-03-10T02:15:57.634Z,99115.03
2023-03-10T02:16:29.405Z,99113.22
2023-03-10T02:17:01.591Z,99108.13
2023-03-10T02:17:34.487Z,99112.53
2023-03-10T02:18:10.381Z,99110.78
2023-03-10T02:18:45.306Z,99119.22
2023-03-10T02:19:30.573Z,99119.16
2023-03-10T02:20:11.071Z,99114.00
2023-03-10T02:21:11.710Z,99112.44
2023-03-10T02:22:08.662Z,99101.25
2023-03-10T02:22:40.888Z,99102.09
2023-03-10T02:23:22.615Z,99103.03
2023-03-10T02:24:22.561Z,99098.81
2023-03-10T02:24:59.664Z,99104.94
2023-03-10T02:26:01.030Z,99102.50
2023-03-10T02:27:00.287Z,99105.03
2023-03-10T02:27:36.561Z,99093.09
2023-03-10T02:28:08.377Z,99097.34
2023-03-10T02:28:40.106Z,99097.34
2023-03-10T02:29:21.542Z,99100.06
2023-03-10T02:30:23.629Z,99099.09
2023-03-10T02:30:57.004Z,99095.84
2023-03-10T02:31:29.799Z,99100.91
2023-03-10T02:32:02.921Z,99099.31
2023-03-10T02:32:41.118Z,99100.16
2023-03-10T02:33:20.127Z,99096.81
2023-03-10T02:33:52.260Z,99093.34
2023-03-10T02:34:26.734Z,99094.91
2023-03-10T02:34:59.031Z,99089.69
2023-03-10T02:35:30.840Z,99088.84
2023-03-10T02:36:14.666Z,99098.34
2023-03-10T02:36:46.365Z,99091.59
2023-03-10T02:37:28.627Z,99093.19
2023-03-10T02:38:00.384Z,99089.69
2023-03-10T02:38:32.086Z,99091.34
2023-03-10T02:39:04.129Z,99093.09
2023-03-10T02:39:35.772Z,99084.53
2023-03-10T02:40:40.421Z,99089.56
2023-03-10T02:41:26.673Z,99087.59
2023-03-10T02:41:58.432Z,99085.00
2023-03-10T02:42:34.837Z,99085.78
2023-03-10T02:43:12.596Z,99088.41
2023-03-10T02:43:44.297Z,99088.41
2023-03-10T02:44:20.576Z,99092.19
2023-03-10T02:44:54.068Z,99088.78
2023-03-10T02:45:32.488Z,99089.75
2023-03-10T02:46:05.517Z,99087.88
2023-03-10T02:46:37.745Z,99086.06
2023-03-10T02:47:10.000Z,99093.66
2023-03-10T02:47:41.625Z,99087.75
2023-03-10T02:48:19.084Z,99089.59
2023-03-10T02:48:50.821Z,99094.72
2023-03-10T02:49:25.162Z,99090.44
2023-03-10T02:49:56.789Z,99082.78
2023-03-10T02:50:35.872Z,99083.94
2023-03-10T02:51:15.487Z,99089.28
2023-03-10T02:51:48.098Z,99082.47
2023-03-10T02:52:38.193Z,99088.22
2023-03-10T02:53:19.215Z,99088.19
2023-03-10T02:53:50.889Z,99081.41
2023-03-10T02:54:22.548Z,99082.25
2023-03-10T02:54:54.247Z,99085.53
2023-03-10T02:55:25.898Z,99081.34
2023-03-10T02:55:58.577Z,99085.44
2023-03-10T02:56:32.403Z,99087.13
2023-03-10T02:57:04.171Z,99082.03
2023-03-10T02:57:35.816Z,99081.19
2023-03-10T02:58:07.876Z,99079.53
2023-03-10T02:58:39.600Z,99077.72
2023-03-10T02:59:11.682Z,99079.66
2023-03-10T02:59:43.420Z,99079.66
2023-03-10T03:00:15.588Z,99074.59
2023-03-10T03:00:48.508Z,99078.81
2023-03-10T03:01:20.315Z,99065.91
2023-03-10T03:01:52.029Z,99079.75
2023-03-10T03:02:23.659Z,99076.31
2023-03-10T03:02:55.414Z,99076.41
2023-03-10T03:03:27.475Z,99071.31
2023-03-10T03:03:59.650Z,99073.13
2023-03-10T03:04:32.050Z,99074.03
2023-03-10T03:05:04.557Z,99061.94
2023-03-10T03:05:37.114Z,99061.16
2023-03-10T03:06:08.968Z,99067.84
2023-03-10T03:06:41.151Z,99058.56
2023-03-10T03:07:12.925Z,99060.31
2023-03-10T03:07:44.616Z,99062.88
2023-03-10T03:08:17.965Z,99068.03
2023-03-10T03:08:49.652Z,99058.72
2023-03-10T03:09:21.415Z,99060.47
2023-03-10T03:09:53.054Z,99063.25
2023-03-10T03:10:25.378Z,99067.44
2023-03-10T03:10:57.090Z,99058.66
2023-03-10T03:11:28.831Z,99058.72
2023-03-10T03:12:01.410Z,99068.13
2023-03-10T03:12:33.106Z,99056.16
2023-03-10T03:13:06.014Z,99056.16
2023-03-10T03:13:37.685Z,99063.88
2023-03-10T03:14:09.362Z,99055.44
2023-03-10T03:14:41.075Z,99053.84
2023-03-10T03:15:12.735Z,99048.94
2023-03-10T03:15:44.463Z,99046.56
2023-03-10T03:16:16.215Z,99043.97
2023-03-10T03:16:47.924Z,99055.94
2023-03-10T03:17:19.615Z,99048.06
2023-03-10T03:17:51.492Z,99049.06
2023-03-10T03:18:23.310Z,99042.22
2023-03-10T03:18:55.094Z,99043.06
2023-03-10T03:19:28.733Z,99043.81
2023-03-10T03:20:01.450Z,99042.09
2023-03-10T03:20:34.040Z,99041.13
2023-03-10T03:21:07.570Z,99043.91
2023-03-10T03:21:39.581Z,99036.09
2023-03-10T03:22:11.237Z,99040.22
2023-03-10T03:22:46.049Z,99034.16
2023-03-10T03:23:18.017Z,99030.66
2023-03-10T03:23:49.699Z,99028.91
2023-03-10T03:24:21.405Z,99027.19
2023-03-10T03:24:53.091Z,99028.91
2023-03-10T03:25:26.939Z,99022.19
2023-03-10T03:25:58.582Z,99022.25
2023-03-10T03:26:31.475Z,99018.84
2023-03-10T03:27:03.156Z,99017.16
2023-03-10T03:27:34.810Z,99012.16
2023-03-10T03:28:08.839Z,99019.97
2023-03-10T03:28:40.490Z,99017.38
2023-03-10T03:29:12.311Z,99017.47
2023-03-10T03:29:43.986Z,99015.00
2023-03-10T03:30:21.018Z,99009.09
2023-03-10T03:30:53.743Z,99019.25
2023-03-10T03:31:26.401Z,99017.59
2023-03-10T03:31:58.202Z,99019.25
2023-03-10T03:32:30.030Z,99018.22
2023-03-10T03:33:03.578Z,99016.56
2023-03-10T03:33:35.411Z,99018.31
2023-03-10T03:34:07.341Z,99025.88
2023-03-10T03:34:39.022Z,99017.22
2023-03-10T03:35:18.676Z,99012.16
2023-03-10T03:35:50.388Z,99014.66
2023-03-10T03:36:22.075Z,99011.31
2023-03-10T03:36:53.756Z,99014.81
2023-03-10T03:37:25.943Z,99010.50
2023-03-10T03:37:58.073Z,99000.25
2023-03-10T03:38:29.829Z,99014.81
2023-03-10T03:39:01.686Z,98999.34
2023-03-10T03:39:33.378Z,99013.75
2023-03-10T03:40:14.378Z,99006.00
2023-03-10T03:40:46.127Z,99004.34
2023-03-10T03:41:17.848Z,99004.34
2023-03-10T03:41:53.301Z,99000.09
2023-03-10T03:42:25.033Z,99002.56
2023-03-10T03:42:57.060Z,99002.47
2023-03-10T03:43:29.645Z,99001.66
2023-03-10T03:44:01.445Z,98995.59
2023-03-10T03:44:33.141Z,98996.25
2023-03-10T03:45:05.304Z,98982.53
2023-03-10T03:45:37.009Z,98998.75
2023-03-10T03:46:08.734Z,98994.47
2023-03-10T03:46:40.470Z,98995.31
2023-03-10T03:47:12.231Z,98997.81
2023-03-10T03:47:44.051Z,98988.25
2023-03-10T03:48:15.757Z,98991.72
2023-03-10T03:48:47.403Z,98991.91
2023-03-10T03:49:19.045Z,98989.31
2023-03-10T03:49:50.688Z,98991.72
2023-03-10T03:50:23.136Z,98990.91
2023-03-10T03:50:54.801Z,98985.88
2023-03-10T03:51:26.476Z,98981.44
2023-03-10T03:51:58.155Z,98985.81
2023-03-10T03:52:29.863Z,98981.63
2023-03-10T03:53:01.501Z,98988.63
2023-03-10T03:53:34.029Z,98980.81
2023-03-10T03:54:05.782Z,98976.56
2023-03-10T03:54:37.445Z,98983.28
2023-03-10T03:55:10.325Z,98979.75
2023-03-10T03:55:42.099Z,98980.69
2023-03-10T03:56:13.830Z,98974.69
2023-03-10T03:56:45.547Z,98979.00
2023-03-10T03:57:17.482Z,98982.19
2023-03-10T03:57:49.530Z,98971.03
2023-03-10T03:58:21.225Z,98975.38
2023-03-10T03:58:52.905Z,98969.47
2023-03-10T03:59:24.789Z,98973.53
2023-03-10T03:59:56.475Z,98967.91
2023-03-10T04:00:28.137Z,98968.84
2023-03-10T04:00:59.797Z,98973.00
2023-03-10T04:01:31.630Z,98967.91
2023-03-10T04:02:03.317Z,98964.75
2023-03-10T04:02:35.664Z,98958.69
2023-03-10T04:03:07.423Z,98966.41
2023-03-10T04:03:39.282Z,98957.84
2023-03-10T04:04:10.970Z,98959.44
2023-03-10T04:04:42.679Z,98958.69
2023-03-10T04:05:14.487Z,98958.69
2023-03-10T04:05:46.170Z,98955.50
2023-03-10T04:06:17.789Z,98956.47
2023-03-10T04:06:49.432Z,98961.56
2023-03-10T04:07:21.088Z,98965.03
2023-03-10T04:07:52.815Z,98958.97
2023-03-10T04:08:24.433Z,98956.47
2023-03-10T04:08:56.068Z,98958.97
2023-03-10T04:09:28.933Z,98965.03
2023-03-10T04:10:00.654Z,98966.78
2023-03-10T04:10:32.472Z,98965.25
2023-03-10T04:11:04.209Z,98963.41
2023-03-10T04:11:36.595Z,98954.03
2023-03-10T04:12:10.156Z,98965.25
2023-03-10T04:12:41.914Z,98966.91
2023-03-10T04:13:13.525Z,98962.66
2023-03-10T04:13:45.219Z,98963.41
2023-03-10T04:14:17.550Z,98970.56
2023-03-10T04:14:49.309Z,98962.00
2023-03-10T04:15:21.166Z,98968.66
2023-03-10T04:15:57.415Z,98965.47
2023-03-10T04:16:29.120Z,98965.47
2023-03-10T04:17:00.865Z,98961.09
2023-03-10T04:17:32.595Z,98964.50
2023-03-10T04:18:04.214Z,98965.47
2023-03-10T04:18:35.913Z,98964.63
2023-03-10T04:19:07.809Z,98964.69
2023-03-10T04:19:39.632Z,98960.53
2023-03-10T04:20:15.080Z,98956.88
2023-03-10T04:20:46.713Z,98961.22
2023-03-10T04:21:18.454Z,98954.31
2023-03-10T04:21:50.126Z,98956.06
2023-03-10T04:22:21.928Z,98956.97
2023-03-10T04:22:53.623Z,98957.75
2023-03-10T04:23:25.391Z,98954.38
2023-03-10T04:23:57.090Z,98955.31
2023-03-10T04:24:28.781Z,98951.06
2023-03-10T04:25:00.489Z,98948.28
2023-03-10T04:25:32.176Z,98952.59
2023-03-10T04:26:07.694Z,98962.03
2023-03-10T04:26:39.442Z,98956.88
2023-03-10T04:27:11.540Z,98954.56
2023-03-10T04:27:43.199Z,98954.47
2023-03-10T04:28:14.895Z,98958.78
2023-03-10T04:28:46.580Z,98957.97
2023-03-10T04:29:18.679Z,98957.03
2023-03-10T04:29:50.742Z,98954.38
2023-03-10T04:30:24.047Z,98957.88
2023-03-10T04:30:55.906Z,98967.19
2023-03-10T04:31:27.731Z,98964.69
2023-03-10T04:32:05.666Z,98959.63
2023-03-10T04:32:37.714Z,98949.47
2023-03-10T04:33:11.292Z,98953.16
2023-03-10T04:33:43.202Z,98951.44
2023-03-10T04:34:14.843Z,98944.59
2023-03-10T04:34:46.489Z,98949.84
2023-03-10T04:35:18.192Z,98955.94
2023-03-10T04:35:51.444Z,98952.53
2023-03-10T04:36:23.390Z,98948.28
2023-03-10T04:36:55.060Z,98958.75
2023-03-10T04:37:27.324Z,98954.34
2023-03-10T04:37:58.978Z,98964.66
2023-03-10T04:38:30.716Z,98953.44
2023-03-10T04:39:02.835Z,98957.84
2023-03-10T04:39:34.498Z,98962.91
2023-03-10T04:40:09.437Z,98952.63
2023-03-10T04:40:41.168Z,98962.25
2023-03-10T04:41:12.884Z,98959.59
2023-03-10T04:41:44.570Z,98950.31
2023-03-10T04:42:16.221Z,98961.25
2023-03-10T04:42:47.906Z,98957.22
2023-03-10T04:43:19.560Z,98953.88
2023-03-10T04:43:51.582Z,98954.72
2023-03-10T04:44:30.892Z,98959.88
2023-03-10T04:45:02.965Z,98950.41
2023-03-10T04:45:34.605Z,98953.16
2023-03-10T04:46:06.777Z,98957.50
2023-03-10T04:46:38.534Z,98946.31
2023-03-10T04:47:10.280Z,98954.88
2023-03-10T04:47:42.003Z,98947.34
2023-03-10T04:48:13.649Z,98948.38
2023-03-10T04:48:46.357Z,98949.28
2023-03-10T04:49:18.096Z,98944.28
2023-03-10T04:49:49.864Z,98940.88
2023-03-10T04:50:21.498Z,98939.91
2023-03-10T04:51:02.368Z,98943.56
2023-03-10T04:51:34.957Z,98946.16
2023-03-10T04:52:06.966Z,98938.31
2023-03-10T04:52:38.604Z,98934.41
2023-03-10T04:53:10.244Z,98934.63
2023-03-10T04:53:41.945Z,98931.97
2023-03-10T04:54:13.619Z,98932.81
2023-03-10T04:54:45.268Z,98938.03
2023-03-10T04:55:17.388Z,98930.47
2023-03-10T04:55:51.423Z,98939.09
2023-03-10T04:56:25.164Z,98935.78
2023-03-10T04:56:56.894Z,98934.06
2023-03-10T04:57:28.589Z,98934.97
2023-03-10T04:58:00.297Z,98933.44
2023-03-10T04:58:33.064Z,98931.91
2023-03-10T04:59:04.938Z,98932.59
2023-03-10T04:59:37.219Z,98923.16
2023-03-10T05:00:12.513Z,98926.59
2023-03-10T05:01:00.362Z,98922.28
2023-03-10T05:01:34.678Z,98928.31
2023-03-10T05:02:06.415Z,98930.94
2023-03-10T05:02:39.066Z,98923.44
2023-03-10T05:03:11.121Z,98920.72
2023-03-10T05:03:43.324Z,98931.75
2023-03-10T05:04:15.059Z,98928.31
2023-03-10T05:04:47.011Z,98926.25
2023-03-10T05:05:18.833Z,98929.56
2023-03-10T05:05:50.814Z,98924.47
2023-03-10T05:06:22.464Z,98926.97
2023-03-10T05:06:54.217Z,98923.56
2023-03-10T05:07:25.876Z,98925.09
2023-03-10T05:07:57.512Z,98919.03
2023-03-10T05:08:29.192Z,98924.19
2023-03-10T05:09:03.531Z,98923.56
2023-03-10T05:09:36.992Z,98919.25
2023-03-10T05:10:09.967Z,98914.94
2023-03-10T05:10:43.907Z,98915.78
2023-03-10T05:11:15.555Z,98914.94
2023-03-10T05:11:47.395Z,98920.84
2023-03-10T05:12:19.119Z,98914.94
2023-03-10T05:12:50.783Z,98922.59
2023-03-10T05:13:22.528Z,98915.03
2023-03-10T05:13:54.166Z,98922.75
2023-03-10T05:14:25.842Z,98923.56
2023-03-10T05:14:57.492Z,98926.81
2023-03-10T05:15:29.146Z,98923.28
2023-03-10T05:16:01.059Z,98929.19
2023-03-10T05:16:32.868Z,98924.97
2023-03-10T05:17:05.281Z,98925.63
2023-03-10T05:17:37.437Z,98925.72
2023-03-10T05:18:11.692Z,98924.72
2023-03-10T05:18:43.421Z,98924.59
2023-03-10T05:19:15.060Z,98921.31
2023-03-10T05:19:46.731Z,98919.59
2023-03-10T05:20:19.148Z,98916.97
2023-03-10T05:20:56.146Z,98908.72
2023-03-10T05:21:27.820Z,98915.50
2023-03-10T05:21:59.477Z,98918.63
2023-03-10T05:22:31.154Z,98924.47
2023-03-10T05:23:02.933Z,98907.44
2023-03-10T05:23:34.861Z,98917.78
2023-03-10T05:24:06.825Z,98909.16
2023-03-10T05:24:38.638Z,98905.69
2023-03-10T05:25:12.100Z,98909.00
2023-03-10T05:25:43.778Z,98903.88
2023-03-10T05:26:16.408Z,98908.09
2023-03-10T05:26:48.171Z,98903.09
2023-03-10T05:27:21.893Z,98906.38
2023-03-10T05:27:53.585Z,98895.09
2023-03-10T05:28:25.211Z,98901.91
2023-03-10T05:28:57.977Z,98897.69
2023-03-10T05:29:30.272Z,98898.44
2023-03-10T05:30:05.132Z,98901.09
2023-03-10T05:30:36.807Z,98900.84
2023-03-10T05:31:10.826Z,98895.22
2023-03-10T05:31:43.031Z,98895.31
2023-03-10T05:32:14.751Z,98894.31
2023-03-10T05:32:46.857Z,98889.88
2023-03-10T05:33:18.526Z,98887.38
2023-03-10T05:33:50.153Z,98897.59
2023-03-10T05:34:23.847Z,98894.88
2023-03-10T05:34:55.549Z,98894.88
2023-03-10T05:35:27.220Z,98894.03
2023-03-10T05:35:58.856Z,98890.72
2023-03-10T05:36:30.503Z,98889.81
2023-03-10T05:37:02.285Z,98894.81
2023-03-10T05:37:39.317Z,98887.84
2023-03-10T05:38:10.996Z,98888.63
2023-03-10T05:38:42.940Z,98893.75
2023-03-10T05:39:14.565Z,98890.34
2023-03-10T05:39:46.194Z,98889.59
2023-03-10T05:40:19.883Z,98893.00
2023-03-10T05:40:51.560Z,98887.84
2023-03-10T05:41:23.224Z,98883.63
2023-03-10T05:41:54.885Z,98890.34
2023-03-10T05:42:26.550Z,98885.13
2023-03-10T05:42:58.235Z,98890.97
2023-03-10T05:43:29.947Z,98890.00
2023-03-10T05:44:01.690Z,98889.25
2023-03-10T05:44:33.346Z,98887.41
2023-03-10T05:45:07.003Z,98894.09
2023-03-10T05:45:38.765Z,98890.66
2023-03-10T05:46:11.517Z,98890.66
2023-03-10T05:46:43.249Z,98893.19
2023-03-10T05:47:19.038Z,98885.38
2023-03-10T05:47:50.703Z,98892.13
2023-03-10T05:48:22.336Z,98880.84
2023-03-10T05:48:54.047Z,98881.81
2023-03-10T05:49:25.709Z,98885.09
2023-03-10T05:49:57.379Z,98881.75
2023-03-10T05:50:29.383Z,98884.25
2023-03-10T05:51:08.018Z,98889.19
2023-03-10T05:51:39.725Z,98893.41
2023-03-10T05:52:11.412Z,98883.94
2023-03-10T05:52:44.653Z,98884.66
2023-03-10T05:53:16.578Z,98885.47
2023-03-10T05:53:48.348Z,98879.41
2023-03-10T05:54:20.080Z,98879.25
2023-03-10T05:54:54.276Z,98880.88
2023-03-10T05:55:28.670Z,98883.53
2023-03-10T05:56:00.691Z,98872.31
2023-03-10T05:56:32.741Z,98878.22
2023-03-10T05:57:04.748Z,98872.97
2023-03-10T05:57:36.493Z,98868.66
2023-03-10T05:58:08.235Z,98872.75
2023-03-10T05:58:40.591Z,98869.28
2023-03-10T05:59:12.326Z,98872.75
2023-03-10T05:59:44.077Z,98865.66
2023-03-10T06:00:16.927Z,98870.63
2023-03-10T06:00:48.670Z,98866.97
2023-03-10T06:01:20.384Z,98864.41
2023-03-10T06:01:52.094Z,98868.50
2023-03-10T06:02:23.714Z,98873.56
2023-03-10T06:02:55.554Z,98867.47
2023-03-10T06:03:28.741Z,98869.13
2023-03-10T06:04:00.499Z,98869.88
2023-03-10T06:04:33.337Z,98877.50
2023-03-10T06:05:12.694Z,98873.19
2023-03-10T06:05:44.558Z,98872.22
2023-03-10T06:06:16.244Z,98871.38
2023-03-10T06:06:48.025Z,98861.91
2023-03-10T06:07:19.709Z,98869.56
2023-03-10T06:07:51.826Z,98865.91
2023-03-10T06:08:23.743Z,98869.09
2023-03-10T06:08:55.632Z,98869.09
2023-03-10T06:09:29.138Z,98868.03
2023-03-10T06:10:01.409Z,98862.88
2023-03-10T06:10:33.668Z,98861.88
2023-03-10T06:11:06.193Z,98865.22
2023-03-10T06:11:38.163Z,98867.69
2023-03-10T06:12:09.870Z,98870.22
2023-03-10T06:12:41.548Z,98864.28
2023-03-10T06:13:13.256Z,98865.66
2023-03-10T06:13:44.923Z,98873.47
2023-03-10T06:14:16.689Z,98875.03
2023-03-10T06:14:48.357Z,98868.81
2023-03-10T06:15:20.179Z,98872.16
2023-03-10T06:15:54.369Z,98866.91
2023-03-10T06:16:26.312Z,98869.34
2023-03-10T06:16:58.435Z,98866.69
2023-03-10T06:17:30.282Z,98877.50
2023-03-10T06:18:01.969Z,98866.28
2023-03-10T06:18:34.151Z,98866.09
2023-03-10T06:19:05.754Z,98876.38
2023-03-10T06:19:37.413Z,98868.53
2023-03-10T06:20:09.713Z,98868.38
2023-03-10T06:20:41.417Z,98871.69
2023-03-10T06:21:14.717Z,98867.31
2023-03-10T06:21:46.449Z,98869.63
2023-03-10T06:22:18.938Z,98867.00
2023-03-10T06:22:52.494Z,98867.56
2023-03-10T06:23:26.290Z,98858.88
2023-03-10T06:23:59.254Z,98857.00
2023-03-10T06:24:30.942Z,98868.06
2023-03-10T06:25:02.839Z,98852.41
2023-03-10T06:25:34.504Z,98862.56
2023-03-10T06:26:13.318Z,98854.56
2023-03-10T06:26:45.019Z,98856.91
2023-03-10T06:27:16.736Z,98858.41
2023-03-10T06:27:48.422Z,98853.06
2023-03-10T06:28:20.144Z,98856.25
2023-03-10T06:28:51.838Z,98856.81
2023-03-10T06:29:23.530Z,98852.31
2023-03-10T06:29:55.175Z,98853.88